Time;durP1;ratioP1;P1;durP2;ratioP2;P2;SDS_P1;SDS_P2;PMS_P1;PMS_P2;Temp;Humidity;BMP_temperature;BMP_pressure;BME280_temperature;BME280_humidity;BME280_pressure;Samples;Min_cycle;Max_cycle;Signal;HPM_P1;HPM_P2
2023/01/29 00:47:32;;;;;;;3.57;2.60;;;;;;;;;;6304182;22;20105;-80
2023/01/29 00:50:49;;;;;;;4.70;3.10;;;1.60;99.90;;;;;;6279662;22;20010;-82
2023/01/29 00:53:19;;;;;;;4.35;2.80;;;;;;;;;;6183654;22;20007;-80
2023/01/29 00:59:40;;;;;;;3.17;2.40;;;;;;;;;;6213493;23;20063;-81
2023/01/29 01:05:46;;;;;;;4.07;2.60;;;;;;;;;;6274975;23;19914;-84
2023/01/29 01:11:50;;;;;;;5.47;2.90;;;;;;;;;;6273154;23;20486;-81
2023/01/29 01:18:15;;;;;;;4.28;2.53;;;1.50;99.90;;;;;;6214284;23;20020;-85
2023/01/29 01:23:30;;;;;;;4.53;2.75;;;;;;;;;;6246249;22;20023;-81
2023/01/29 01:37:45;;;;;;;3.13;2.50;;;;;;;;;;6295706;22;20020;-81
2023/01/29 01:40:25;;;;;;;4.13;2.88;;;;;;;;;;6363226;22;19991;-84
2023/01/29 01:48:45;;;;;;;5.07;2.90;;;;;;;;;;6328351;22;20449;-82
2023/01/29 01:52:13;;;;;;;6.85;2.65;;;;;;;;;;6315807;22;20011;-80
2023/01/29 02:00:49;;;;;;;3.80;2.60;;;1.20;99.90;;;;;;6295806;22;20018;-83
2023/01/29 02:41:37;;;;;;;5.22;3.25;;;;;;;;;;6029726;23;20003;-80
2023/01/29 03:08:17;;;;;;;4.53;3.38;;;;;;;;;;6298879;22;20011;-83
2023/01/29 03:11:12;;;;;;;5.57;2.90;;;;;;;;;;6314555;22;20059;-81
2023/01/29 03:17:10;;;;;;;5.60;3.47;;;;;;;;;;6327123;22;20022;-80
2023/01/29 03:20:06;;;;;;;5.35;3.83;;;;;;;;;;6324678;22;20004;-81
2023/01/29 03:23:00;;;;;;;4.50;3.40;;;;;;;;;;6327452;22;19999;-81
2023/01/29 03:45:16;;;;;;;6.32;3.40;;;;;;;;;;6238728;23;20030;-81
2023/01/29 03:51:29;;;;;;;6.10;3.35;;;;;;;;;;6265915;23;19999;-83
2023/01/29 04:13:25;;;;;;;6.05;3.95;;;0.20;99.90;;;;;;6312405;22;20072;-82
2023/01/29 05:49:07;;;;;;;6.40;4.45;;;;;;;;;;6295106;22;20057;-80
2023/01/29 05:55:30;;;;;;;10.02;5.35;;;;;;;;;;6264624;23;20007;-81
2023/01/29 06:01:41;;;;;;;9.15;4.35;;;;;;;;;;6265872;23;20387;-82
2023/01/29 06:07:48;;;;;;;;;;;;;;;;;;;;;
2023/01/29 06:17:15;;;;;;;8.93;5.25;;;;;;;;;;6139625;23;20078;-81
2023/01/29 06:23:20;;;;;;;7.50;4.30;;;;;;;;;;6000632;23;20031;-81
2023/01/29 06:26:07;;;;;;;9.95;5.15;;;;;;;;;;6052411;23;20003;-82
2023/01/29 06:37:27;;;;;;;7.82;5.40;;;;;;;;;;6320614;22;20022;-82
2023/01/29 06:39:54;;;;;;;7.82;4.72;;;;;;;;;;6298876;22;20000;-82
2023/01/29 06:42:28;;;;;;;11.25;5.13;;;;;;;;;;6290285;22;20062;-82
2023/01/29 06:44:58;;;;;;;8.93;5.05;;;;;;;;;;6264730;22;20031;-82
2023/01/29 06:47:31;;;;;;;8.95;4.68;;;;;;;;;;6291820;22;20004;-82
2023/01/29 06:50:00;;;;;;;11.18;5.47;;;;;;;;;;6267663;22;20011;-82
2023/01/29 06:52:53;;;;;;;9.18;5.20;;;;;;;;;;6296061;22;20011;-82
2023/01/29 06:55:20;;;;;;;7.97;5.00;;;;;;;;;;6297919;22;20030;-80
2023/01/29 06:57:54;;;;;;;9.05;4.57;;;;;;;;;;6266237;22;20025;-80
2023/01/29 07:01:17;;;;;;;9.00;5.38;;;-0.90;99.90;;;;;;6232160;23;20023;-80
2023/01/29 07:04:00;;;;;;;8.65;5.28;;;;;;;;;;6230324;23;20008;-80
2023/01/29 07:06:31;;;;;;;8.63;5.20;;;;;;;;;;6229661;23;20004;-81
2023/01/29 07:09:29;;;;;;;13.05;5.05;;;;;;;;;;6180739;23;20009;-81
2023/01/29 07:12:37;;;;;;;8.80;5.18;;;;;;;;;;6230826;23;20016;-83
2023/01/29 07:18:50;;;;;;;10.70;5.28;;;;;;;;;;6226257;23;20044;-83
2023/01/29 07:21:40;;;;;;;11.68;4.57;;;;;;;;;;6176014;23;20015;-82
2023/01/29 07:24:39;;;;;;;7.18;4.32;;;;;;;;;;6225583;23;20000;-83
2023/01/29 07:27:09;;;;;;;12.05;5.22;;;;;;;;;;6227387;23;20423;-81
2023/01/29 07:29:53;;;;;;;10.52;4.97;;;;;;;;;;6209895;23;20009;-82
2023/01/29 07:35:02;;;;;;;8.93;4.90;;;-1.10;99.90;;;;;;6308198;22;20015;-80
2023/01/29 07:37:32;;;;;;;8.70;4.68;;;;;;;;;;6281854;22;20034;-79
2023/01/29 07:40:00;;;;;;;8.77;4.60;;;;;;;;;;6309772;22;19998;-80
2023/01/29 07:42:27;;;;;;;6.07;4.10;;;;;;;;;;6281500;22;20003;-80
2023/01/29 07:45:10;;;;;;;7.68;4.65;;;-1.00;99.90;;;;;;6280140;22;20003;-78
2023/01/29 07:47:36;;;;;;;11.50;6.07;;;;;;;;;;6306615;22;20038;-79
2023/01/29 07:50:08;;;;;;;9.15;5.32;;;;;;;;;;6258590;22;20011;-80
2023/01/29 07:52:38;;;;;;;7.60;5.05;;;;;;;;;;6309116;22;20058;-78
2023/01/29 07:55:04;;;;;;;8.10;5.13;;;;;;;;;;6253423;22;20007;-80
2023/01/29 07:57:46;;;;;;;8.82;5.18;;;;;;;;;;6280152;22;20008;-79
2023/01/29 08:00:24;;;;;;;10.15;5.38;;;-1.10;99.90;;;;;;6279299;22;20082;-81
2023/01/29 08:27:22;;;;;;;10.30;5.07;;;;;;;;;;6299285;22;20018;-82
2023/01/29 08:29:48;;;;;;;9.20;5.55;;;;;;;;;;6273378;22;20022;-79
2023/01/29 08:32:14;;;;;;;12.13;6.20;;;;;;;;;;6272689;22;20011;-80
2023/01/29 08:34:40;;;;;;;10.02;6.45;;;;;;;;;;6272033;22;20374;-81
2023/01/29 08:37:06;;;;;;;10.60;6.20;;;;;;;;;;6297820;22;19992;-80
2023/01/29 08:39:32;;;;;;;9.75;5.95;;;;;;;;;;6301009;22;20022;-80
2023/01/29 08:41:58;;;;;;;10.73;5.78;;;;;;;;;;6273378;22;20379;-80
2023/01/29 08:44:25;;;;;;;9.20;6.00;;;;;;;;;;6276841;22;19992;-83
2023/01/29 08:46:51;;;;;;;9.38;5.45;;;;;;;;;;6273713;22;19988;-82
2023/01/29 08:49:18;;;;;;;12.15;5.90;;;;;;;;;;6304946;22;20019;-82
2023/01/29 08:51:50;;;;;;;10.90;6.05;;;;;;;;;;6304405;22;19987;-81
2023/01/29 08:54:17;;;;;;;9.77;5.60;;;;;;;;;;6277302;22;20026;-82
2023/01/29 08:56:45;;;;;;;9.40;6.13;;;;;;;;;;6277894;22;20006;-86
2023/01/29 09:04:34;;;;;;;9.38;5.72;;;;;;;;;;6287615;22;20294;-83
2023/01/29 09:07:01;;;;;;;11.40;6.05;;;;;;;;;;6275655;22;20007;-83
2023/01/29 09:09:27;;;;;;;11.43;5.53;;;;;;;;;;6277692;22;19991;-87
2023/01/29 09:11:54;;;;;;;7.88;5.28;;;;;;;;;;6278001;22;20051;-82
2023/01/29 09:14:21;;;;;;;12.85;6.30;;;;;;;;;;6304454;22;19992;-83
2023/01/29 09:16:49;;;;;;;9.50;5.53;;;;;;;;;;6278357;22;20034;-83
2023/01/29 09:19:15;;;;;;;10.10;5.68;;;;;;;;;;6277459;22;19992;-82
2023/01/29 09:21:42;;;;;;;8.68;5.90;;;;;;;;;;6304101;22;20011;-82
2023/01/29 09:24:09;;;;;;;9.00;5.47;;;;;;;;;;6304218;22;20018;-83
2023/01/29 09:26:36;;;;;;;10.20;5.65;;;;;;;;;;6276609;22;19995;-82
2023/01/29 09:29:05;;;;;;;8.63;6.13;;;;;;;;;;6277788;22;20000;-83
2023/01/29 09:31:31;;;;;;;10.63;6.40;;;;;;;;;;6278178;22;20023;-82
2023/01/29 09:33:58;;;;;;;9.05;5.60;;;;;;;;;;6304872;22;20018;-84
2023/01/29 10:02:32;;;;;;;8.98;5.20;;;;;;;;;;6320537;22;20077;-81
2023/01/29 10:05:17;;;;;;;8.57;5.65;;;;;;;;;;6292524;22;19995;-79
2023/01/29 10:14:26;;;;;;;8.70;5.50;;;;;;;;;;6320435;22;20022;-80
2023/01/29 10:20:14;;;;;;;;;;;;;;;;;;;;;
2023/01/29 10:23:14;;;;;;;8.57;5.18;;;;;;;;;;6198255;23;20056;-81
2023/01/29 10:42:21;;;;;;;;;;;;;;;;;;;;;
2023/01/29 11:20:46;;;;;;;9.30;5.47;;;;;;;;;;6271788;22;20011;-83
2023/01/29 11:25:55;;;;;;;8.18;5.20;;;;;;;;;;6255926;22;20105;-81
2023/01/29 13:36:20;;;;;;;10.88;6.60;;;;;;;;;;6286414;22;20420;-82
2023/01/29 13:38:53;;;;;;;9.82;6.18;;;;;;;;;;6287868;22;20023;-85
2023/01/29 13:41:20;;;;;;;9.10;5.70;;;;;;;;;;6288962;22;20014;-82
2023/01/29 13:43:49;;;;;;;11.07;5.90;;;;;;;;;;6261048;22;20046;-83
2023/01/29 13:46:17;;;;;;;12.23;6.47;;;;;;;;;;6285410;22;20007;-82
2023/01/29 13:48:45;;;;;;;10.98;6.22;;;;;;;;;;6288768;22;20061;-84
2023/01/29 13:51:16;;;;;;;11.48;6.97;;;;;;;;;;6290724;22;19999;-83
2023/01/29 13:53:51;;;;;;;9.35;6.13;;;;;;;;;;6287202;22;19996;-86
2023/01/29 13:56:32;;;;;;;10.73;6.40;;;;;;;;;;6289097;22;20031;-86
2023/01/29 13:58:58;;;;;;;10.15;6.72;;;;;;;;;;6290303;22;19996;-84
2023/01/29 14:01:45;;;;;;;11.95;6.20;;;2.80;99.90;;;;;;6292600;22;20027;-84
2023/01/29 14:04:31;;;;;;;9.20;6.35;;;;;;;;;;6288896;22;20016;-82
2023/01/29 14:06:58;;;;;;;9.55;6.13;;;3.00;99.90;;;;;;6287470;22;20012;-84
2023/01/29 14:09:53;;;;;;;10.32;6.93;;;;;;;;;;6288555;22;20037;-81
2023/01/29 14:12:32;;;;;;;9.80;6.50;;;;;;;;;;6293137;22;20007;-85
2023/01/29 14:14:58;;;;;;;11.25;7.10;;;;;;;;;;6291466;22;20069;-83
2023/01/29 14:17:32;;;;;;;11.35;6.68;;;;;;;;;;6288835;22;20003;-84
2023/01/29 14:20:06;;;;;;;11.68;6.57;;;;;;;;;;6290218;22;20013;-81
2023/01/29 14:22:32;;;;;;;11.07;7.03;;;;;;;;;;6289755;22;20428;-82
2023/01/29 14:25:01;;;;;;;14.93;6.95;;;;;;;;;;6284705;22;20030;-82
2023/01/29 14:27:27;;;;;;;11.80;7.32;;;;;;;;;;6287365;22;20034;-81
2023/01/29 14:30:08;;;;;;;11.00;6.85;;;;;;;;;;6289985;22;20617;-83
2023/01/29 14:32:37;;;;;;;11.75;6.90;;;;;;;;;;6290453;22;20402;-82
2023/01/29 14:35:09;;;;;;;14.35;7.07;;;;;;;;;;6288261;22;20012;-81
2023/01/29 14:37:38;;;;;;;12.20;7.32;;;;;;;;;;6285448;22;20160;-85
2023/01/29 14:40:10;;;;;;;13.88;8.27;;;;;;;;;;6284827;22;20000;-82
2023/01/29 14:42:56;;;;;;;11.90;7.50;;;2.50;99.90;;;;;;6286197;22;20127;-82
2023/01/29 14:45:27;;;;;;;10.15;6.60;;;;;;;;;;6287405;22;20011;-81
2023/01/29 14:47:54;;;;;;;11.88;7.13;;;;;;;;;;6260406;22;20026;-81
2023/01/29 14:50:31;;;;;;;13.55;7.28;;;;;;;;;;6281839;22;20007;-84
2023/01/29 14:53:31;;;;;;;12.65;8.05;;;2.60;99.90;;;;;;6283766;22;20034;-83
2023/01/29 14:56:16;;;;;;;12.45;7.78;;;2.50;99.90;;;;;;6280542;22;20022;-85
2023/01/29 14:59:20;;;;;;;13.90;8.23;;;2.50;99.90;;;;;;6285337;22;20054;-83
2023/01/29 15:01:51;;;;;;;12.98;8.15;;;2.50;99.90;;;;;;6286585;22;20024;-82
2023/01/29 15:04:23;;;;;;;15.55;9.63;;;;;;;;;;6288857;22;19987;-86
2023/01/29 15:07:03;;;;;;;12.80;8.20;;;;;;;;;;6289629;22;20007;-85
2023/01/29 15:09:33;;;;;;;12.63;7.47;;;;;;;;;;6294871;22;19980;-87
2023/01/29 15:12:03;;;;;;;13.73;8.10;;;;;;;;;;6296553;22;20031;-85
2023/01/29 15:14:29;;;;;;;13.43;7.80;;;;;;;;;;6286562;22;20004;-86
2023/01/29 15:16:57;;;;;;;13.13;7.68;;;;;;;;;;6286085;22;20031;-84
2023/01/29 15:19:46;;;;;;;13.73;8.68;;;2.50;99.90;;;;;;6283284;22;20245;-85
2023/01/29 15:22:15;;;;;;;13.15;7.82;;;2.40;99.90;;;;;;6286684;22;20062;-86
2023/01/29 15:24:42;;;;;;;12.98;8.07;;;;;;;;;;6285240;22;20015;-82
2023/01/29 15:27:16;;;;;;;19.55;9.80;;;;;;;;;;6286392;22;20014;-85
2023/01/29 15:29:44;;;;;;;12.00;8.23;;;;;;;;;;6286644;22;20063;-85
2023/01/29 15:32:25;;;;;;;14.30;9.45;;;;;;;;;;6287978;22;20008;-83
2023/01/29 15:34:52;;;;;;;11.88;7.47;;;;;;;;;;6288183;22;20004;-86
2023/01/29 15:37:29;;;;;;;13.85;8.25;;;;;;;;;;6286806;22;20007;-85
2023/01/29 15:39:55;;;;;;;14.25;8.13;;;;;;;;;;6297665;22;20278;-87
2023/01/29 15:42:26;;;;;;;15.95;8.38;;;;;;;;;;6294311;22;20071;-84
2023/01/29 15:44:54;;;;;;;13.35;7.35;;;2.30;99.90;;;;;;6291654;22;20053;-85
2023/01/29 15:47:29;;;;;;;15.68;8.05;;;3.70;99.90;;;;;;6290118;22;20071;-84
2023/01/29 15:49:56;;;;;;;12.82;8.27;;;;;;;;;;6288014;22;20004;-87
2023/01/29 15:52:31;;;;;;;13.30;7.82;;;;;;;;;;6289382;22;20026;-86
2023/01/29 15:55:05;;;;;;;15.30;8.73;;;;;;;;;;6286408;22;20008;-83
2023/01/29 15:57:40;;;;;;;14.40;8.45;;;;;;;;;;6288616;22;20110;-85
2023/01/29 16:00:10;;;;;;;13.20;8.43;;;;;;;;;;6289139;22;20016;-86
2023/01/29 16:02:40;;;;;;;16.15;8.68;;;;;;;;;;6288569;22;20031;-83
2023/01/29 16:05:18;;;;;;;14.93;8.85;;;;;;;;;;6288573;22;20313;-86
2023/01/29 16:07:44;;;;;;;15.23;8.82;;;;;;;;;;6286382;22;20023;-85
2023/01/29 16:10:16;;;;;;;13.48;8.85;;;;;;;;;;6289214;22;20030;-84
2023/01/29 16:12:42;;;;;;;13.65;9.20;;;;;;;;;;6287001;22;20098;-85
2023/01/29 16:15:24;;;;;;;14.27;8.80;;;;;;;;;;6289106;22;20008;-83
2023/01/29 16:17:50;;;;;;;16.70;8.90;;;;;;;;;;6285958;22;20011;-86
2023/01/29 16:20:26;;;;;;;16.55;9.48;;;;;;;;;;6288352;22;20324;-86
2023/01/29 16:22:52;;;;;;;15.38;9.30;;;;;;;;;;6290928;22;20066;-84
2023/01/29 16:25:19;;;;;;;19.08;9.10;;;;;;;;;;6288051;22;20034;-85
2023/01/29 16:27:45;;;;;;;14.90;9.40;;;;;;;;;;6285956;22;20023;-87
2023/01/29 16:30:15;;;;;;;19.25;10.10;;;;;;;;;;6293454;22;20006;-86
2023/01/29 16:32:41;;;;;;;17.48;10.63;;;;;;;;;;6294284;22;19992;-87
2023/01/29 16:35:14;;;;;;;26.55;12.50;;;;;;;;;;6297213;22;19996;-85
2023/01/29 16:37:40;;;;;;;25.00;12.77;;;;;;;;;;6295903;22;20023;-87
2023/01/29 16:40:15;;;;;;;24.08;12.80;;;1.70;99.90;;;;;;6297217;22;19992;-86
2023/01/29 16:42:41;;;;;;;20.38;11.00;;;;;;;;;;6297209;22;19996;-87
2023/01/29 16:45:33;;;;;;;19.83;10.60;;;1.70;99.90;;;;;;6298058;22;19996;-85
2023/01/29 16:48:01;;;;;;;22.63;12.65;;;;;;;;;;6292457;22;20316;-82
2023/01/29 16:50:34;;;;;;;19.40;12.10;;;1.70;99.90;;;;;;6297927;22;20000;-86
2023/01/29 16:53:01;;;;;;;18.73;11.07;;;;;;;;;;6271958;22;20018;-87
2023/01/29 16:55:38;;;;;;;19.63;11.75;;;;;;;;;;6298763;22;20044;-87
2023/01/29 16:58:11;;;;;;;21.38;12.95;;;;;;;;;;6297466;22;20004;-87
2023/01/29 17:00:42;;;;;;;22.63;12.50;;;;;;;;;;6299839;22;20055;-87
2023/01/29 17:03:17;;;;;;;19.17;11.63;;;;;;;;;;6297044;22;20003;-85
2023/01/29 17:05:43;;;;;;;19.80;11.27;;;;;;;;;;6295720;22;20003;-84
2023/01/29 17:08:31;;;;;;;23.00;12.07;;;1.50;99.90;;;;;;6293718;22;20016;-82
2023/01/29 17:10:57;;;;;;;21.48;12.55;;;;;;;;;;6294676;22;19999;-80
2023/01/29 17:13:35;;;;;;;21.85;12.10;;;2.30;99.90;;;;;;6290565;22;20003;-86
2023/01/29 17:16:02;;;;;;;18.40;11.35;;;;;;;;;;6293595;22;19999;-83
2023/01/29 17:18:28;;;;;;;19.77;11.65;;;;;;;;;;6293885;22;20075;-85
2023/01/29 17:20:54;;;;;;;23.45;13.25;;;;;;;;;;6296265;22;20007;-82
2023/01/29 17:23:21;;;;;;;22.08;13.48;;;1.40;99.90;;;;;;6290871;22;19988;-83
2023/01/29 17:25:47;;;;;;;21.65;11.82;;;1.40;99.90;;;;;;6287044;22;20072;-83
2023/01/29 17:28:15;;;;;;;23.35;12.23;;;1.40;99.90;;;;;;6287032;22;20007;-84
2023/01/29 17:30:42;;;;;;;19.77;11.43;;;;;;;;;;6292605;22;20090;-84
2023/01/29 17:33:12;;;;;;;23.08;11.43;;;;;;;;;;6294747;22;20115;-82
2023/01/29 17:35:39;;;;;;;23.40;12.00;;;;;;;;;;6293490;22;20034;-83
2023/01/29 17:38:05;;;;;;;20.02;12.35;;;;;;;;;;6293035;22;20014;-82
2023/01/29 17:40:44;;;;;;;24.30;13.10;;;1.40;99.90;;;;;;6293181;22;20049;-84
2023/01/29 17:43:10;;;;;;;24.58;12.93;;;;;;;;;;6290828;22;19984;-85
2023/01/29 17:45:37;;;;;;;23.88;13.63;;;;;;;;;;6294320;22;19995;-83
2023/01/29 17:48:04;;;;;;;26.50;14.07;;;;;;;;;;6299215;22;19992;-84
2023/01/29 17:50:31;;;;;;;24.73;14.50;;;;;;;;;;6299503;22;19992;-82
2023/01/29 17:52:57;;;;;;;26.83;13.60;;;;;;;;;;6297241;22;20015;-82
2023/01/29 17:55:23;;;;;;;22.98;13.75;;;;;;;;;;6295252;22;20019;-81
2023/01/29 17:57:49;;;;;;;24.95;13.52;;;;;;;;;;6293537;22;19995;-84
2023/01/29 18:00:17;;;;;;;25.83;14.27;;;;;;;;;;6294317;22;20008;-82
2023/01/29 18:02:43;;;;;;;25.92;14.98;;;;;;;;;;6295969;22;20037;-85
2023/01/29 18:05:10;;;;;;;27.45;14.88;;;;;;;;;;6293178;22;19992;-83
2023/01/29 18:07:37;;;;;;;26.08;13.85;;;;;;;;;;6292620;22;20043;-84
2023/01/29 18:10:03;;;;;;;24.10;13.32;;;;;;;;;;6269012;22;20012;-82
2023/01/29 18:12:29;;;;;;;25.60;13.40;;;;;;;;;;6266192;22;19996;-81
2023/01/29 18:14:55;;;;;;;29.73;14.48;;;;;;;;;;6293581;22;20027;-82
2023/01/29 18:17:22;;;;;;;26.25;14.48;;;;;;;;;;6292615;22;20011;-82
2023/01/29 18:19:48;;;;;;;27.27;15.30;;;1.30;99.90;;;;;;6290771;22;20063;-82
2023/01/29 18:22:14;;;;;;;24.35;13.27;;;;;;;;;;6294835;22;20000;-83
2023/01/29 18:24:40;;;;;;;24.25;14.48;;;;;;;;;;6295692;22;20004;-82
2023/01/29 18:27:06;;;;;;;35.05;18.27;;;;;;;;;;6294768;22;20038;-85
2023/01/29 18:29:32;;;;;;;34.97;17.92;;;;;;;;;;6294363;22;20026;-81
2023/01/29 18:31:58;;;;;;;28.95;16.92;;;;;;;;;;6293241;22;20077;-84
2023/01/29 18:34:27;;;;;;;29.02;14.85;;;;;;;;;;6294772;22;20055;-82
2023/01/29 18:36:53;;;;;;;25.02;14.15;;;;;;;;;;6288799;22;20024;-84
2023/01/29 18:39:19;;;;;;;28.35;15.18;;;;;;;;;;6292850;22;20043;-85
2023/01/29 18:41:45;;;;;;;30.05;14.52;;;;;;;;;;6293930;22;19999;-81
2023/01/29 18:44:11;;;;;;;30.48;16.25;;;;;;;;;;6290369;22;20015;-83
2023/01/29 18:46:37;;;;;;;28.00;15.05;;;;;;;;;;6294450;22;20059;-83
2023/01/29 18:49:04;;;;;;;25.77;14.73;;;;;;;;;;6293939;22;20004;-83
2023/01/29 18:51:31;;;;;;;31.85;15.75;;;;;;;;;;6294492;22;20015;-83
2023/01/29 18:53:57;;;;;;;26.35;15.30;;;;;;;;;;6295058;22;20011;-82
2023/01/29 18:56:23;;;;;;;25.63;14.95;;;;;;;;;;6290963;22;20003;-86
2023/01/29 18:58:53;;;;;;;26.77;14.43;;;;;;;;;;6292713;22;20065;-81
2023/01/29 19:01:19;;;;;;;26.23;14.77;;;;;;;;;;6292495;22;20055;-83
2023/01/29 19:03:45;;;;;;;24.38;14.27;;;;;;;;;;6293393;22;20004;-82
2023/01/29 19:06:13;;;;;;;28.85;15.15;;;;;;;;;;6290127;22;20011;-81
2023/01/29 19:08:39;;;;;;;27.98;16.15;;;;;;;;;;6290535;22;20000;-82
2023/01/29 19:11:07;;;;;;;25.60;14.18;;;;;;;;;;6292515;22;20004;-82
2023/01/29 19:13:35;;;;;;;26.40;14.90;;;;;;;;;;6290582;22;20003;-85
2023/01/29 19:16:10;;;;;;;29.00;15.35;;;;;;;;;;6290763;22;19999;-81
2023/01/29 19:18:38;;;;;;;29.90;16.42;;;;;;;;;;6290007;22;19999;-83
2023/01/29 19:21:09;;;;;;;29.13;15.82;;;;;;;;;;6291195;22;20022;-85
2023/01/29 19:23:35;;;;;;;39.88;19.63;;;;;;;;;;6297834;22;20029;-81
2023/01/29 19:26:01;;;;;;;30.45;16.08;;;;;;;;;;6294808;22;20022;-80
2023/01/29 19:28:27;;;;;;;30.25;14.63;;;;;;;;;;6295523;22;20428;-84
2023/01/29 19:30:56;;;;;;;34.25;17.98;;;1.00;99.90;;;;;;6292746;22;20067;-85
2023/01/29 19:33:22;;;;;;;33.70;16.98;;;;;;;;;;6288965;22;20031;-85
2023/01/29 20:00:13;;;;;;;28.10;14.40;;;1.00;99.90;;;;;;6252842;22;20030;-81
2023/01/29 20:09:43;;;;;;;29.08;15.15;;;;;;;;;;6256749;23;20031;-79
2023/01/29 20:12:21;;;;;;;29.08;13.68;;;;;;;;;;6255625;23;20004;-78
2023/01/29 20:15:18;;;;;;;27.98;15.02;;;;;;;;;;6142217;23;20013;-81
2023/01/29 20:27:51;;;;;;;28.35;14.35;;;0.80;99.90;;;;;;6224265;23;20009;-80
2023/01/29 20:30:42;;;;;;;27.40;14.30;;;;;;;;;;6217767;23;20009;-79
2023/01/29 20:40:00;;;;;;;30.02;15.60;;;;;;;;;;6182759;23;20004;-79
2023/01/29 20:43:03;;;;;;;27.75;14.60;;;;;;;;;;6197906;22;20154;-79
2023/01/29 20:45:39;;;;;;;29.10;15.60;;;;;;;;;;6327569;22;20019;-81
2023/01/29 20:48:25;;;;;;;29.67;15.68;;;;;;;;;;6292660;22;20024;-80
2023/01/29 20:50:56;;;;;;;32.90;16.98;;;;;;;;;;6274831;22;20041;-78
2023/01/29 20:56:30;;;;;;;31.02;15.23;;;;;;;;;;6278728;22;20018;-82
2023/01/29 21:11:43;;;;;;;30.25;14.68;;;;;;;;;;6196578;23;20016;-79
2023/01/29 21:18:15;;;;;;;30.45;15.52;;;0.60;99.90;;;;;;6193560;23;20071;-78
2023/01/29 21:24:22;;;;;;;31.45;15.25;;;;;;;;;;6050873;23;20014;-81
2023/01/29 21:46:18;;;;;;;29.90;15.07;;;;;;;;;;6148020;23;20037;-81
2023/01/29 21:52:42;;;;;;;30.75;15.25;;;;;;;;;;6239606;22;20019;-81
2023/01/29 22:07:53;;;;;;;31.17;14.80;;;;;;;;;;6084597;23;20014;-80
2023/01/29 22:11:25;;;;;;;35.10;16.13;;;0.50;99.90;;;;;;6083056;23;20019;-79
2023/01/29 22:27:20;;;;;;;33.78;15.52;;;;;;;;;;6009111;23;20072;-80
2023/01/29 22:35:58;;;;;;;35.50;15.45;;;;;;;;;;6072833;23;20124;-81
2023/01/29 22:41:44;;;;;;;35.80;15.35;;;;;;;;;;6074733;23;20070;-80
2023/01/29 22:50:32;;;;;;;33.67;15.45;;;;;;;;;;6083842;23;20366;-80
2023/01/29 22:59:20;;;;;;;33.47;15.25;;;;;;;;;;6294653;22;20038;-80
2023/01/29 23:04:57;;;;;;;37.05;16.67;;;;;;;;;;6294387;22;20548;-80
2023/01/29 23:07:53;;;;;;;37.55;16.45;;;;;;;;;;6280715;22;20070;-80
2023/01/29 23:10:43;;;;;;;36.47;15.88;;;;;;;;;;6259965;22;20400;-82
2023/01/29 23:19:29;;;;;;;33.25;14.45;;;;;;;;;;6260457;22;20010;-79
2023/01/29 23:22:25;;;;;;;32.38;14.82;;;;;;;;;;6285589;22;20000;-80
2023/01/29 23:32:07;;;;;;;31.88;15.25;;;;;;;;;;6163174;23;20012;-79
2023/01/29 23:38:48;;;;;;;32.13;14.85;;;;;;;;;;6161854;23;20056;-79
2023/01/29 23:41:49;;;;;;;32.25;15.23;;;;;;;;;;6073043;23;20313;-79
2023/01/29 23:48:14;;;;;;;37.45;15.70;;;;;;;;;;6071442;23;20025;-80
